createdAt,value
2023-07-02T00:01:46.949Z,2.20
2023-07-02T00:04:20.675Z,2.10
2023-07-02T00:06:53.292Z,1.87
2023-07-02T00:09:26.883Z,2.27
2023-07-02T00:11:58.086Z,2.13
2023-07-02T00:14:34.160Z,1.77
2023-07-02T00:17:08.104Z,1.60
2023-07-02T00:19:42.790Z,1.93
2023-07-02T00:22:17.069Z,1.60
2023-07-02T00:24:47.669Z,1.63
2023-07-02T00:27:16.928Z,1.70
2023-07-02T00:29:51.673Z,2.47
2023-07-02T00:32:23.594Z,2.77
2023-07-02T00:34:58.168Z,1.50
2023-07-02T00:37:28.828Z,1.63
2023-07-02T00:40:00.997Z,1.40
2023-07-02T00:42:42.793Z,2.00
2023-07-02T00:45:19.391Z,1.70
2023-07-02T00:47:51.564Z,1.57
2023-07-02T00:50:27.100Z,1.57
2023-07-02T00:53:00.277Z,2.93
2023-07-02T00:55:35.227Z,1.60
2023-07-02T00:58:09.350Z,2.20
2023-07-02T01:00:44.915Z,1.23
2023-07-02T01:03:14.722Z,1.57
2023-07-02T01:05:46.092Z,3.03
2023-07-02T01:08:18.547Z,1.30
2023-07-02T01:10:48.941Z,1.57
2023-07-02T01:13:23.750Z,1.33
2023-07-02T01:15:54.790Z,1.97
2023-07-02T01:18:29.053Z,2.17
2023-07-02T01:21:02.902Z,1.23
2023-07-02T01:23:37.171Z,1.43
2023-07-02T01:26:09.868Z,1.17
2023-07-02T01:28:41.913Z,1.10
2023-07-02T01:31:13.808Z,2.17
2023-07-02T01:33:46.571Z,1.10
2023-07-02T01:36:19.888Z,1.77
2023-07-02T01:38:52.636Z,1.37
2023-07-02T01:41:25.916Z,1.27
2023-07-02T01:43:56.997Z,1.83
2023-07-02T01:46:29.103Z,0.93
2023-07-02T01:49:01.912Z,1.57
2023-07-02T01:51:36.579Z,1.90
2023-07-02T01:54:09.389Z,1.90
2023-07-02T01:56:41.877Z,1.37
2023-07-02T01:59:13.072Z,1.20
2023-07-02T02:05:32.272Z,0.97
2023-07-02T02:08:03.314Z,2.27
2023-07-02T02:10:33.655Z,1.23
2023-07-02T02:13:04.378Z,0.90
2023-07-02T02:15:35.474Z,1.60
2023-07-02T02:18:15.852Z,1.70
2023-07-02T02:20:47.292Z,1.10
2023-07-02T02:23:24.306Z,4.80
2023-07-02T02:25:54.922Z,2.70
2023-07-02T02:28:25.016Z,1.73
2023-07-02T02:30:58.029Z,1.20
2023-07-02T02:33:32.485Z,1.50
2023-07-02T02:36:04.292Z,2.40
2023-07-02T02:38:38.915Z,1.50
2023-07-02T02:41:11.867Z,1.53
2023-07-02T02:43:43.767Z,2.67
2023-07-02T02:46:22.217Z,1.80
2023-07-02T02:48:55.857Z,2.53
2023-07-02T02:51:29.386Z,1.90
2023-07-02T02:54:00.999Z,2.40
2023-07-02T02:56:32.176Z,1.70
2023-07-02T02:59:05.424Z,2.17
2023-07-02T03:01:34.537Z,2.00
2023-07-02T03:04:10.825Z,2.00
2023-07-02T03:06:47.925Z,1.80
2023-07-02T03:09:24.168Z,2.23
2023-07-02T03:11:57.653Z,2.20
2023-07-02T03:14:29.858Z,2.20
2023-07-02T03:17:01.190Z,2.40
2023-07-02T03:19:35.243Z,2.63
2023-07-02T03:22:10.168Z,2.67
2023-07-02T03:24:47.316Z,2.33
2023-07-02T03:27:21.666Z,2.57
2023-07-02T03:29:51.812Z,2.50
2023-07-02T03:32:26.467Z,2.47
2023-07-02T03:35:00.192Z,2.50
2023-07-02T03:37:33.749Z,2.43
2023-07-02T03:40:06.438Z,2.60
2023-07-02T03:42:42.511Z,2.50
2023-07-02T03:45:18.132Z,2.70
2023-07-02T03:47:49.368Z,2.47
2023-07-02T03:50:23.529Z,2.63
2023-07-02T03:52:54.416Z,2.80
2023-07-02T03:55:30.367Z,2.97
2023-07-02T03:58:04.907Z,2.20
2023-07-02T04:00:36.915Z,3.20
2023-07-02T04:03:07.062Z,2.77
2023-07-02T04:05:38.882Z,2.77
2023-07-02T04:08:15.657Z,2.77
2023-07-02T04:10:50.639Z,2.97
2023-07-02T04:13:21.034Z,2.63
2023-07-02T04:15:57.391Z,3.93
2023-07-02T04:18:32.820Z,2.93
2023-07-02T04:21:05.779Z,2.87
2023-07-02T04:23:37.833Z,2.87
2023-07-02T04:26:21.430Z,3.20
2023-07-02T04:29:05.320Z,4.50
2023-07-02T04:31:41.062Z,3.20
2023-07-02T04:34:19.075Z,3.47
2023-07-02T04:36:54.084Z,3.40
2023-07-02T04:39:26.165Z,3.87
2023-07-02T04:42:00.122Z,3.03
2023-07-02T04:44:31.216Z,3.23
2023-07-02T04:47:07.223Z,3.80
2023-07-02T04:49:40.002Z,2.50
2023-07-02T04:52:14.163Z,3.33
2023-07-02T04:54:45.181Z,3.57
2023-07-02T04:57:18.256Z,2.87
2023-07-02T04:59:50.525Z,3.17
2023-07-02T05:02:23.093Z,2.70
2023-07-02T05:04:58.768Z,3.50
2023-07-02T05:07:32.035Z,3.70
2023-07-02T05:10:03.985Z,2.93
2023-07-02T05:12:40.425Z,2.80
2023-07-02T05:15:10.857Z,3.40
2023-07-02T05:17:43.430Z,2.87
2023-07-02T05:20:18.709Z,2.73
2023-07-02T05:22:48.611Z,3.00
2023-07-02T05:25:24.238Z,4.20
2023-07-02T05:27:57.378Z,3.90
2023-07-02T05:30:29.649Z,3.93
2023-07-02T05:33:03.118Z,2.80
2023-07-02T05:35:37.911Z,3.30
2023-07-02T05:38:08.670Z,4.17
2023-07-02T05:40:50.307Z,3.17
2023-07-02T05:43:26.615Z,3.27
2023-07-02T05:46:07.569Z,2.80
2023-07-02T05:48:44.000Z,3.17
2023-07-02T05:51:22.760Z,3.20
2023-07-02T05:53:57.747Z,2.63
2023-07-02T05:56:35.961Z,2.60
2023-07-02T05:59:09.269Z,3.20
2023-07-02T06:01:45.974Z,2.80
2023-07-02T06:04:22.984Z,3.30
2023-07-02T06:06:58.685Z,3.80
2023-07-02T06:09:36.577Z,2.90
2023-07-02T06:12:15.747Z,3.07
2023-07-02T06:15:00.592Z,3.20
2023-07-02T06:17:39.558Z,3.07
2023-07-02T06:20:15.130Z,3.13
2023-07-02T06:22:48.582Z,3.17
2023-07-02T06:25:20.532Z,3.73
2023-07-02T06:27:50.742Z,3.30
2023-07-02T06:30:27.357Z,4.23
2023-07-02T06:32:57.116Z,5.90
2023-07-02T06:35:29.895Z,5.30
2023-07-02T06:38:02.900Z,7.40
2023-07-02T06:40:39.944Z,9.80
2023-07-02T06:43:15.602Z,8.57
2023-07-02T06:45:54.788Z,5.97
2023-07-02T06:48:24.950Z,6.50
2023-07-02T06:51:01.693Z,6.70
2023-07-02T06:53:34.661Z,7.53
2023-07-02T06:56:09.531Z,6.60
2023-07-02T06:58:41.348Z,6.03
2023-07-02T07:01:18.152Z,6.93
2023-07-02T07:03:57.956Z,7.23
2023-07-02T07:06:32.733Z,6.23
2023-07-02T07:09:15.542Z,4.80
2023-07-02T07:11:46.717Z,4.30
2023-07-02T07:14:21.320Z,4.27
2023-07-02T07:17:01.261Z,4.43
2023-07-02T07:19:37.940Z,3.50
2023-07-02T07:22:13.080Z,3.00
2023-07-02T07:24:44.428Z,2.90
2023-07-02T07:27:14.688Z,2.70
2023-07-02T07:29:54.164Z,2.80
2023-07-02T07:32:30.697Z,2.80
2023-07-02T07:35:06.507Z,2.87
2023-07-02T07:37:38.453Z,3.00
2023-07-02T07:40:11.413Z,3.00
2023-07-02T07:42:43.861Z,2.93
2023-07-02T07:45:14.817Z,2.90
2023-07-02T07:47:46.445Z,2.80
2023-07-02T07:50:20.048Z,2.73
2023-07-02T07:52:58.629Z,2.47
2023-07-02T07:55:29.176Z,2.63
2023-07-02T07:58:08.976Z,2.57
2023-07-02T08:00:46.674Z,2.20
2023-07-02T08:03:27.771Z,2.73
2023-07-02T08:06:10.170Z,2.10
2023-07-02T08:08:44.450Z,2.00
2023-07-02T08:11:20.030Z,2.20
2023-07-02T08:13:58.104Z,2.27
2023-07-02T08:16:33.021Z,2.60
2023-07-02T08:19:13.227Z,1.90
2023-07-02T08:21:56.342Z,2.13
2023-07-02T08:24:31.927Z,3.20
2023-07-02T08:27:15.316Z,2.20
2023-07-02T08:29:48.560Z,1.80
2023-07-02T08:32:29.897Z,2.20
2023-07-02T08:35:08.046Z,3.00
2023-07-02T08:37:37.808Z,2.23
2023-07-02T08:40:19.351Z,2.87
2023-07-02T08:42:55.621Z,2.00
2023-07-02T08:45:28.911Z,1.97
2023-07-02T08:48:02.744Z,2.40
2023-07-02T08:50:35.429Z,3.30
2023-07-02T08:53:11.403Z,2.30
2023-07-02T08:55:46.939Z,2.77
2023-07-02T08:58:22.447Z,4.27
2023-07-02T09:01:08.823Z,2.30
2023-07-02T09:03:48.821Z,2.30
2023-07-02T09:06:29.549Z,2.60
2023-07-02T09:09:08.088Z,3.87
2023-07-02T09:11:52.006Z,2.60
2023-07-02T09:14:29.270Z,2.60
2023-07-02T09:17:09.857Z,2.57
2023-07-02T09:19:52.349Z,2.40
2023-07-02T09:22:32.807Z,2.37
2023-07-02T09:25:09.092Z,2.20
2023-07-02T09:27:40.850Z,2.67
2023-07-02T09:30:23.936Z,2.47
2023-07-02T09:33:08.798Z,2.80
2023-07-02T09:35:39.336Z,2.80
2023-07-02T09:38:21.969Z,2.57
2023-07-02T09:41:02.202Z,4.00
2023-07-02T09:43:41.345Z,3.27
2023-07-02T09:46:19.370Z,3.17
2023-07-02T09:48:55.789Z,3.03
2023-07-02T09:51:31.932Z,3.13
2023-07-02T09:54:06.735Z,3.20
2023-07-02T09:56:42.240Z,2.73
2023-07-02T09:59:19.818Z,3.00
2023-07-02T10:01:52.178Z,3.13
2023-07-02T10:04:27.058Z,3.37
2023-07-02T10:07:06.391Z,3.83
2023-07-02T10:09:45.626Z,4.60
2023-07-02T10:12:24.300Z,3.93
2023-07-02T10:15:02.105Z,2.90
2023-07-02T10:17:33.700Z,3.47
2023-07-02T10:20:19.098Z,2.87
2023-07-02T10:22:54.309Z,3.33
2023-07-02T10:25:29.239Z,2.83
2023-07-02T10:28:17.780Z,4.57
2023-07-02T10:30:59.727Z,3.20
2023-07-02T10:33:29.659Z,3.03
2023-07-02T10:36:02.524Z,3.37
2023-07-02T10:38:39.176Z,2.73
2023-07-02T10:41:26.604Z,4.20
2023-07-02T10:44:10.003Z,2.87
2023-07-02T10:46:47.474Z,2.70
2023-07-02T10:49:20.510Z,2.90
2023-07-02T10:52:01.656Z,3.03
2023-07-02T10:54:42.633Z,2.67
2023-07-02T10:57:22.019Z,2.60
2023-07-02T11:00:08.842Z,3.43
2023-07-02T11:02:45.043Z,2.80
2023-07-02T11:05:31.361Z,5.30
2023-07-02T11:08:10.644Z,2.47
2023-07-02T11:10:46.151Z,3.37
2023-07-02T11:13:25.505Z,3.63
2023-07-02T11:16:06.509Z,3.13
2023-07-02T11:18:49.741Z,2.83
2023-07-02T11:21:21.058Z,2.67
2023-07-02T11:24:09.269Z,3.10
2023-07-02T11:26:46.066Z,2.87
2023-07-02T11:29:21.637Z,3.30
2023-07-02T11:31:52.919Z,3.10
2023-07-02T11:34:35.325Z,2.70
2023-07-02T11:37:11.548Z,3.10
2023-07-02T11:39:46.040Z,3.00
2023-07-02T11:42:22.891Z,4.00
2023-07-02T11:44:59.219Z,4.13
2023-07-02T11:47:33.740Z,3.03
2023-07-02T11:50:26.395Z,3.23
2023-07-02T11:53:08.604Z,3.73
2023-07-02T11:55:46.443Z,3.27
2023-07-02T11:58:19.462Z,4.70
2023-07-02T12:00:57.343Z,3.50
2023-07-02T12:03:29.616Z,6.77
2023-07-02T12:06:07.257Z,3.93
2023-07-02T12:08:42.731Z,4.07
2023-07-02T12:11:22.219Z,3.67
2023-07-02T12:13:58.753Z,3.50
2023-07-02T12:16:34.137Z,3.00
2023-07-02T12:19:09.808Z,3.90
2023-07-02T12:21:44.481Z,4.67
2023-07-02T12:24:28.340Z,5.13
2023-07-02T12:27:12.998Z,4.67
2023-07-02T12:29:54.149Z,3.90
2023-07-02T12:32:34.239Z,3.50
2023-07-02T12:35:11.259Z,3.30
2023-07-02T12:37:46.758Z,3.90
2023-07-02T12:40:22.060Z,4.20
2023-07-02T12:43:00.457Z,4.07
2023-07-02T12:45:34.413Z,4.40
2023-07-02T12:48:13.778Z,4.67
2023-07-02T12:50:56.716Z,4.00
2023-07-02T12:53:33.108Z,5.67
2023-07-02T12:56:11.737Z,4.50
2023-07-02T12:58:45.732Z,4.70
2023-07-02T13:01:21.802Z,4.47
2023-07-02T13:04:11.188Z,5.83
2023-07-02T13:06:41.877Z,4.57
2023-07-02T13:09:16.770Z,4.67
2023-07-02T13:11:48.870Z,4.77
2023-07-02T13:14:18.288Z,4.40
2023-07-02T13:16:56.821Z,5.23
2023-07-02T13:19:34.417Z,5.70
2023-07-02T13:22:09.157Z,5.00
2023-07-02T13:24:57.161Z,4.93
2023-07-02T13:27:27.116Z,5.47
2023-07-02T13:30:07.316Z,6.77
2023-07-02T13:32:41.584Z,4.87
2023-07-02T13:35:21.441Z,4.80
2023-07-02T13:38:02.198Z,5.30
2023-07-02T13:40:37.823Z,4.47
2023-07-02T13:43:19.989Z,5.20
2023-07-02T13:45:52.365Z,5.53
2023-07-02T13:48:28.719Z,4.80
2023-07-02T13:51:10.289Z,6.40
2023-07-02T13:53:45.676Z,5.83
2023-07-02T13:56:26.617Z,5.23
2023-07-02T13:59:06.660Z,5.00
2023-07-02T14:01:43.629Z,5.73
2023-07-02T14:04:18.496Z,5.77
2023-07-02T14:06:55.627Z,5.60
2023-07-02T14:09:27.950Z,6.10
2023-07-02T14:12:05.778Z,6.67
2023-07-02T14:14:44.433Z,6.10
2023-07-02T14:17:29.752Z,5.87
2023-07-02T14:20:09.113Z,6.10
2023-07-02T14:22:42.402Z,6.33
2023-07-02T14:25:31.974Z,6.33
2023-07-02T14:28:09.572Z,6.83
2023-07-02T14:30:49.137Z,5.93
2023-07-02T14:33:31.725Z,6.43
2023-07-02T14:36:01.591Z,8.00
2023-07-02T14:38:35.407Z,6.27
2023-07-02T14:41:22.961Z,6.40
2023-07-02T14:43:56.503Z,9.77
2023-07-02T14:46:29.442Z,9.13
2023-07-02T14:49:09.925Z,6.33
2023-07-02T14:51:50.578Z,6.30
2023-07-02T14:54:33.003Z,6.70
2023-07-02T14:57:11.937Z,6.40
2023-07-02T14:59:52.396Z,7.07
2023-07-02T15:02:29.186Z,7.27
2023-07-02T15:05:08.903Z,6.83
2023-07-02T15:07:54.948Z,7.23
2023-07-02T15:10:27.411Z,7.23
2023-07-02T15:13:09.117Z,7.07
2023-07-02T15:15:42.426Z,7.50
2023-07-02T15:18:21.460Z,8.07
2023-07-02T15:20:59.705Z,7.60
2023-07-02T15:23:42.445Z,7.23
2023-07-02T15:26:17.368Z,7.00
2023-07-02T15:28:56.763Z,6.97
2023-07-02T15:31:42.588Z,7.63
2023-07-02T15:34:27.803Z,6.37
2023-07-02T15:37:09.332Z,7.03
2023-07-02T15:39:49.518Z,6.73
2023-07-02T15:42:22.214Z,7.90
2023-07-02T15:44:50.521Z,6.93
2023-07-02T15:47:21.023Z,9.10
2023-07-02T15:49:51.256Z,8.23
2023-07-02T15:52:21.339Z,7.30
2023-07-02T15:54:49.965Z,7.57
2023-07-02T15:57:18.783Z,7.30
2023-07-02T15:59:47.255Z,7.60
2023-07-02T16:02:15.964Z,7.50
2023-07-02T16:04:47.494Z,7.43
2023-07-02T16:07:17.267Z,7.13
2023-07-02T16:09:46.254Z,7.23
2023-07-02T16:12:14.547Z,7.87
2023-07-02T16:14:43.168Z,8.07
2023-07-02T16:17:11.575Z,7.67
2023-07-02T16:19:40.104Z,7.57
2023-07-02T16:22:08.732Z,8.13
2023-07-02T16:24:38.404Z,7.57
2023-07-02T16:27:10.795Z,7.53
2023-07-02T16:29:39.686Z,8.90
2023-07-02T16:32:12.919Z,9.73
2023-07-02T16:34:41.553Z,8.73
2023-07-02T16:37:10.075Z,8.00
2023-07-02T16:39:39.850Z,8.83
2023-07-02T16:42:08.872Z,8.97
2023-07-02T16:44:37.361Z,9.67
2023-07-02T16:47:19.336Z,8.37
2023-07-02T16:49:49.261Z,8.83
2023-07-02T16:52:17.617Z,8.67
2023-07-02T16:54:50.824Z,7.80
2023-07-02T16:57:19.070Z,9.03
2023-07-02T16:59:47.379Z,8.60
2023-07-02T17:02:15.985Z,8.83
2023-07-02T17:04:45.374Z,9.57
2023-07-02T17:07:13.771Z,9.53
2023-07-02T17:09:46.652Z,9.87
2023-07-02T17:12:18.224Z,9.67
2023-07-02T17:14:48.711Z,10.70
2023-07-02T17:17:20.179Z,9.40
2023-07-02T17:19:50.295Z,10.97
2023-07-02T17:22:21.494Z,8.90
2023-07-02T17:24:51.762Z,10.00
2023-07-02T17:27:23.690Z,9.73
2023-07-02T17:29:53.707Z,9.33
2023-07-02T17:32:22.350Z,9.93
2023-07-02T17:34:50.914Z,8.90
2023-07-02T17:37:21.337Z,9.13
2023-07-02T17:39:51.015Z,10.10
2023-07-02T17:42:21.158Z,10.03
2023-07-02T17:44:50.334Z,10.27
2023-07-02T17:47:20.377Z,10.13
2023-07-02T17:49:49.975Z,9.37
2023-07-02T17:52:19.719Z,10.17
2023-07-02T17:54:50.887Z,8.83
2023-07-02T17:57:21.604Z,9.83
2023-07-02T17:59:50.799Z,10.67
2023-07-02T18:02:19.672Z,10.57
2023-07-02T18:04:48.455Z,10.83
2023-07-02T18:07:21.365Z,9.50
2023-07-02T18:09:52.132Z,12.73
2023-07-02T18:12:24.814Z,9.87
2023-07-02T18:14:54.624Z,11.60
2023-07-02T18:17:23.046Z,13.43
2023-07-02T18:19:52.228Z,10.80
2023-07-02T18:22:20.481Z,10.07
2023-07-02T18:24:48.759Z,11.67
2023-07-02T18:27:20.020Z,11.50
2023-07-02T18:29:51.104Z,10.43
2023-07-02T18:32:19.378Z,9.67
2023-07-02T18:34:48.890Z,10.87
2023-07-02T18:37:17.605Z,9.20
2023-07-02T18:39:46.264Z,11.40
2023-07-02T18:42:14.534Z,10.23
2023-07-02T18:44:42.833Z,10.80
2023-07-02T18:47:13.569Z,10.17
2023-07-02T18:49:42.925Z,11.33
2023-07-02T18:52:13.690Z,12.43
2023-07-02T18:54:43.113Z,9.57
2023-07-02T18:57:13.144Z,10.10
2023-07-02T18:59:48.732Z,10.17
2023-07-02T19:02:18.562Z,9.13
2023-07-02T19:04:50.319Z,9.90
2023-07-02T19:07:18.993Z,10.70
2023-07-02T19:09:47.591Z,10.10
2023-07-02T19:12:16.939Z,10.17
2023-07-02T19:14:50.184Z,9.80
2023-07-02T19:17:24.290Z,9.93
2023-07-02T19:19:52.837Z,10.00
2023-07-02T19:22:21.957Z,10.23
2023-07-02T19:24:50.424Z,9.13
2023-07-02T19:27:18.878Z,10.87
2023-07-02T19:29:52.444Z,9.33
2023-07-02T19:32:22.314Z,9.70
2023-07-02T19:34:52.253Z,10.57
2023-07-02T19:37:22.673Z,9.80
2023-07-02T19:39:51.793Z,10.47
2023-07-02T19:42:20.220Z,12.20
2023-07-02T19:44:48.967Z,11.83
2023-07-02T19:47:18.264Z,12.03
2023-07-02T19:49:47.999Z,12.03
2023-07-02T19:52:17.435Z,12.77
2023-07-02T19:54:47.017Z,11.10
2023-07-02T19:57:17.008Z,13.20
2023-07-02T19:59:48.627Z,15.60
2023-07-02T20:02:20.128Z,12.20
2023-07-02T20:04:56.918Z,12.03
2023-07-02T20:07:26.786Z,12.17
2023-07-02T20:09:55.545Z,13.07
2023-07-02T20:12:28.886Z,12.83
2023-07-02T20:14:57.716Z,10.70
2023-07-02T20:17:27.492Z,11.70
2023-07-02T20:20:00.191Z,12.07
2023-07-02T20:22:29.681Z,15.00
2023-07-02T20:25:18.075Z,12.93
2023-07-02T20:27:48.029Z,15.50
2023-07-02T20:30:17.042Z,12.17
2023-07-02T20:32:45.482Z,12.03
2023-07-02T20:35:15.483Z,11.97
2023-07-02T20:37:50.427Z,11.00
2023-07-02T20:40:19.224Z,12.87
2023-07-02T20:42:47.578Z,11.03
2023-07-02T20:45:18.632Z,13.83
2023-07-02T20:47:47.030Z,10.80
2023-07-02T20:50:17.742Z,11.80
2023-07-02T20:52:46.273Z,10.77
2023-07-02T20:55:14.927Z,11.80
2023-07-02T20:57:44.776Z,9.90
2023-07-02T21:00:14.507Z,11.97
2023-07-02T21:02:44.330Z,13.23
2023-07-02T21:05:14.194Z,11.33
2023-07-02T21:07:44.220Z,12.77
2023-07-02T21:10:12.853Z,12.73
2023-07-02T21:12:41.154Z,11.53
2023-07-02T21:15:10.957Z,12.30
2023-07-02T21:17:39.512Z,10.67
2023-07-02T21:20:09.154Z,13.07
2023-07-02T21:22:37.903Z,12.77
2023-07-02T21:25:08.008Z,12.67
2023-07-02T21:27:36.917Z,11.97
2023-07-02T21:30:05.813Z,12.10
2023-07-02T21:32:34.494Z,11.97
2023-07-02T21:35:03.067Z,11.23
2023-07-02T21:37:31.484Z,11.80
2023-07-02T21:40:02.424Z,11.93
2023-07-02T21:42:33.558Z,10.90
2023-07-02T21:45:01.861Z,13.73
2023-07-02T21:47:31.555Z,11.23
2023-07-02T21:49:59.768Z,11.43
2023-07-02T21:52:30.335Z,10.37
2023-07-02T21:54:58.540Z,12.07
2023-07-02T21:57:29.505Z,11.63
2023-07-02T21:59:59.257Z,14.43
2023-07-02T22:02:27.664Z,13.13
2023-07-02T22:04:55.993Z,12.77
2023-07-02T22:07:24.496Z,11.30
2023-07-02T22:09:53.078Z,14.90
2023-07-02T22:12:21.666Z,12.80
2023-07-02T22:14:50.628Z,12.63
2023-07-02T22:17:21.014Z,11.83
2023-07-02T22:19:49.670Z,12.13
2023-07-02T22:22:18.374Z,14.77
2023-07-02T22:24:47.354Z,14.73
2023-07-02T22:27:16.130Z,14.57
2023-07-02T22:29:44.690Z,15.67
2023-07-02T22:32:13.258Z,14.87
2023-07-02T22:34:42.854Z,13.30
2023-07-02T22:38:10.539Z,14.00
2023-07-02T22:41:27.780Z,12.50
2023-07-02T22:43:56.180Z,16.23
2023-07-02T22:46:24.628Z,12.57
2023-07-02T22:48:53.915Z,15.63
2023-07-02T22:51:23.538Z,15.17
2023-07-02T22:53:52.290Z,13.43
2023-07-02T22:56:20.879Z,15.47
2023-07-02T22:58:50.588Z,12.13
2023-07-02T23:01:19.149Z,13.07
2023-07-02T23:03:47.666Z,14.27
2023-07-02T23:06:16.071Z,16.73
2023-07-02T23:08:45.829Z,14.07
2023-07-02T23:11:14.055Z,14.57
2023-07-02T23:13:43.365Z,12.03
2023-07-02T23:16:11.762Z,17.43
2023-07-02T23:18:39.959Z,14.83
2023-07-02T23:21:08.406Z,17.83
2023-07-02T23:23:36.628Z,15.60
2023-07-02T23:26:06.556Z,12.57
2023-07-02T23:28:37.210Z,16.47
2023-07-02T23:31:06.758Z,13.43
2023-07-02T23:33:36.481Z,14.37
2023-07-02T23:36:05.378Z,13.73
2023-07-02T23:38:34.285Z,15.17
2023-07-02T23:41:02.786Z,13.47
2023-07-02T23:43:32.410Z,14.93
2023-07-02T23:46:01.372Z,16.03
2023-07-02T23:48:29.777Z,14.87
2023-07-02T23:50:58.336Z,15.07
2023-07-02T23:53:26.548Z,14.70
2023-07-02T23:55:54.910Z,17.30
2023-07-02T23:58:23.398Z,15.60
